Time;durP1;ratioP1;P1;durP2;ratioP2;P2;SDS_P1;SDS_P2;PMS_P1;PMS_P2;Temp;Humidity;BMP_temperature;BMP_pressure;BME280_temperature;BME280_humidity;BME280_pressure;Samples;Min_cycle;Max_cycle;Signal;HPM_P1;HPM_P2
2022/10/24 00:01:32;;;;;;;6.32;1.30;;;16.90;99.90;;;;;;5079798;28;20036;-72
2022/10/24 00:03:58;;;;;;;4.03;1.33;;;16.90;99.90;;;;;;5096655;28;20403;-71
2022/10/24 00:06:24;;;;;;;3.78;1.42;;;16.90;99.90;;;;;;5097369;28;20032;-72
2022/10/24 00:08:50;;;;;;;5.88;1.75;;;16.90;99.90;;;;;;5079686;28;20032;-72
2022/10/24 00:11:25;;;;;;;6.13;1.50;;;17.00;99.90;;;;;;5079658;28;20280;-72
2022/10/24 00:13:52;;;;;;;5.93;1.23;;;17.00;99.90;;;;;;5097199;28;20028;-72
2022/10/24 00:16:18;;;;;;;4.03;1.40;;;17.00;99.90;;;;;;5097150;28;20024;-66
2022/10/24 00:18:44;;;;;;;7.28;1.50;;;16.90;99.90;;;;;;5097089;28;20032;-69
2022/10/24 00:21:10;;;;;;;4.28;1.50;;;17.10;99.90;;;;;;5096280;28;20035;-72
2022/10/24 00:23:36;;;;;;;5.03;1.55;;;17.10;99.90;;;;;;5096001;28;20066;-72
2022/10/24 00:26:03;;;;;;;4.57;1.75;;;17.10;99.90;;;;;;5096358;28;20039;-73
2022/10/24 00:28:33;;;;;;;4.40;1.55;;;17.20;99.90;;;;;;5096318;28;20043;-70
2022/10/24 00:30:59;;;;;;;6.28;2.20;;;17.10;99.90;;;;;;5079661;28;20055;-71
2022/10/24 00:33:25;;;;;;;6.55;1.80;;;17.10;99.90;;;;;;5097101;28;20028;-70
2022/10/24 00:35:51;;;;;;;4.05;1.52;;;17.10;99.90;;;;;;5096316;28;20032;-71
2022/10/24 00:38:17;;;;;;;6.97;1.70;;;17.10;99.90;;;;;;5096890;28;20085;-70
2022/10/24 00:40:43;;;;;;;4.75;1.50;;;17.20;99.90;;;;;;5096114;28;20062;-70
2022/10/24 00:43:20;;;;;;;5.43;1.77;;;17.10;99.90;;;;;;5079285;28;20024;-70
2022/10/24 00:45:53;;;;;;;4.45;1.50;;;17.10;99.90;;;;;;5096886;28;20024;-70
2022/10/24 00:48:52;;;;;;;2.53;1.40;;;17.20;99.90;;;;;;5096058;28;20085;-70
2022/10/24 00:51:20;;;;;;;5.28;1.60;;;17.20;99.90;;;;;;5096056;28;20032;-71
2022/10/24 00:53:50;;;;;;;7.13;1.70;;;17.20;99.90;;;;;;5096028;28;20093;-68
2022/10/24 00:56:19;;;;;;;7.57;1.88;;;17.20;99.90;;;;;;5096761;28;20109;-70
2022/10/24 00:58:46;;;;;;;4.93;1.50;;;17.20;99.90;;;;;;5096717;28;20344;-70
2022/10/24 01:01:13;;;;;;;3.28;1.20;;;17.10;99.90;;;;;;5095994;28;20040;-68
2022/10/24 01:03:39;;;;;;;4.75;1.40;;;17.20;99.90;;;;;;5095853;28;20074;-63
2022/10/24 01:06:22;;;;;;;5.38;1.63;;;17.20;99.90;;;;;;5096668;28;20056;-65
2022/10/24 01:09:06;;;;;;;5.00;1.40;;;17.20;99.90;;;;;;5095863;28;20032;-69
2022/10/24 01:12:01;;;;;;;5.40;1.73;;;17.20;99.90;;;;;;5096689;28;20403;-68
2022/10/24 01:14:53;;;;;;;6.78;1.65;;;17.20;99.90;;;;;;5096982;28;20319;-64
2022/10/24 01:17:30;;;;;;;10.75;1.92;;;17.20;99.90;;;;;;5095744;28;20418;-64
2022/10/24 01:20:02;;;;;;;7.05;1.60;;;17.20;99.90;;;;;;5095755;28;20040;-67
2022/10/24 01:22:53;;;;;;;5.70;1.75;;;17.20;99.90;;;;;;5079015;28;20039;-68
2022/10/24 01:25:48;;;;;;;7.18;1.00;;;17.20;99.90;;;;;;5096658;28;20021;-66
2022/10/24 01:28:31;;;;;;;3.33;1.10;;;17.20;99.90;;;;;;5078922;28;20031;-68
2022/10/24 01:31:14;;;;;;;9.20;1.63;;;17.20;99.90;;;;;;5096454;28;20035;-66
2022/10/24 01:33:48;;;;;;;5.05;1.65;;;17.10;99.90;;;;;;5095867;28;20051;-67
2022/10/24 01:36:21;;;;;;;6.28;1.65;;;17.10;99.90;;;;;;5099693;28;20418;-65
2022/10/24 01:38:54;;;;;;;3.75;1.20;;;17.10;99.90;;;;;;5099856;28;20036;-68
2022/10/24 01:41:23;;;;;;;5.97;1.10;;;17.10;99.90;;;;;;5099159;28;20099;-64
2022/10/24 01:44:08;;;;;;;10.13;1.33;;;17.10;99.90;;;;;;5099833;28;20418;-67
2022/10/24 01:46:40;;;;;;;4.30;1.10;;;17.10;99.90;;;;;;5082239;28;20028;-67
2022/10/24 01:49:29;;;;;;;5.32;1.27;;;17.10;99.90;;;;;;5099831;28;20064;-68
2022/10/24 01:51:59;;;;;;;6.40;1.25;;;17.20;99.90;;;;;;5099079;28;20028;-66
2022/10/24 01:54:26;;;;;;;2.88;1.15;;;17.10;99.90;;;;;;5099036;28;20032;-69
2022/10/24 01:56:52;;;;;;;4.53;1.23;;;17.10;99.90;;;;;;5099388;28;20156;-66
2022/10/24 01:59:27;;;;;;;4.00;0.90;;;17.00;99.90;;;;;;5081836;28;20074;-66
2022/10/24 02:01:59;;;;;;;9.50;1.50;;;17.00;99.90;;;;;;5098908;28;20436;-67
2022/10/24 02:04:27;;;;;;;5.05;1.15;;;17.10;99.90;;;;;;5098904;28;20295;-63
2022/10/24 02:06:56;;;;;;;3.65;1.10;;;17.00;99.90;;;;;;5098674;28;20035;-65
2022/10/24 02:09:23;;;;;;;6.95;1.23;;;17.00;99.90;;;;;;5099749;28;20397;-66
2022/10/24 02:11:51;;;;;;;5.18;0.95;;;17.00;99.90;;;;;;5099229;28;20035;-66
2022/10/24 02:14:27;;;;;;;4.65;1.13;;;17.00;99.90;;;;;;5098979;28;20311;-66
2022/10/24 02:16:53;;;;;;;5.93;1.08;;;16.90;99.90;;;;;;5099251;28;20028;-64
2022/10/24 02:19:20;;;;;;;6.07;0.93;;;16.90;99.90;;;;;;5098327;28;20020;-66
2022/10/24 02:21:48;;;;;;;4.05;0.98;;;16.90;99.90;;;;;;5098205;28;20369;-67
2022/10/24 02:24:16;;;;;;;4.22;1.13;;;17.00;99.90;;;;;;5099108;28;20027;-63
2022/10/24 02:26:59;;;;;;;7.03;1.10;;;17.00;99.90;;;;;;5098981;28;20309;-66
2022/10/24 02:29:47;;;;;;;5.80;1.30;;;17.00;99.90;;;;;;5098677;28;20028;-67
2022/10/24 02:32:28;;;;;;;5.80;1.20;;;17.00;99.90;;;;;;5098842;28;20111;-68
2022/10/24 02:34:55;;;;;;;5.63;0.98;;;16.90;99.90;;;;;;5098349;28;20074;-65
2022/10/24 02:37:23;;;;;;;4.35;1.02;;;16.90;99.90;;;;;;5097938;28;20028;-69
2022/10/24 02:39:51;;;;;;;6.05;1.10;;;16.90;99.90;;;;;;5098551;28;20032;-65
2022/10/24 02:42:18;;;;;;;4.30;1.00;;;16.90;99.90;;;;;;5098666;28;20042;-67
2022/10/24 02:44:46;;;;;;;6.45;1.00;;;16.90;99.90;;;;;;5080620;28;20040;-64
2022/10/24 02:47:14;;;;;;;4.95;1.35;;;16.90;99.90;;;;;;5098478;28;20020;-66
2022/10/24 02:49:40;;;;;;;6.35;0.98;;;17.00;99.90;;;;;;5081339;28;20067;-66
2022/10/24 02:52:06;;;;;;;4.82;0.75;;;17.00;99.90;;;;;;5098527;28;20075;-67
2022/10/24 02:54:32;;;;;;;8.60;0.98;;;17.00;99.90;;;;;;5098155;28;20044;-67
2022/10/24 02:57:01;;;;;;;6.25;1.10;;;17.10;99.90;;;;;;5097442;28;20059;-64
2022/10/24 02:59:28;;;;;;;4.25;1.10;;;17.00;99.90;;;;;;5097587;28;20063;-64
2022/10/24 03:01:54;;;;;;;6.60;1.30;;;17.10;99.90;;;;;;5080864;28;20131;-67
2022/10/24 03:04:20;;;;;;;8.60;0.93;;;17.10;99.90;;;;;;5098244;28;20027;-65
2022/10/24 03:06:45;;;;;;;3.63;0.65;;;17.10;99.90;;;;;;5098131;28;20093;-67
2022/10/24 03:09:11;;;;;;;4.13;1.23;;;17.00;99.90;;;;;;5098181;28;20040;-65
2022/10/24 03:11:37;;;;;;;3.13;0.80;;;17.00;99.90;;;;;;5098165;28;20394;-68
2022/10/24 03:14:03;;;;;;;7.18;0.98;;;17.00;99.90;;;;;;5097701;28;20032;-71
2022/10/24 03:16:29;;;;;;;8.65;0.90;;;16.90;99.90;;;;;;5097336;28;20402;-68
2022/10/24 03:18:55;;;;;;;4.93;1.00;;;16.90;99.90;;;;;;5098291;28;20101;-68
2022/10/24 03:21:21;;;;;;;4.60;1.00;;;16.80;99.90;;;;;;5097182;28;20085;-67
2022/10/24 03:23:47;;;;;;;6.75;1.00;;;16.70;99.90;;;;;;5097270;28;20036;-67
2022/10/24 03:26:13;;;;;;;9.45;1.10;;;16.70;99.90;;;;;;5097890;28;20088;-68
2022/10/24 03:28:39;;;;;;;6.38;1.20;;;16.70;99.90;;;;;;5097087;28;20043;-67
2022/10/24 03:31:05;;;;;;;4.53;1.13;;;16.70;99.90;;;;;;5063489;28;20039;-67
2022/10/24 03:33:31;;;;;;;6.60;0.98;;;16.70;99.90;;;;;;5097736;28;20425;-66
2022/10/24 03:35:57;;;;;;;5.78;1.10;;;16.70;99.90;;;;;;5098516;28;20402;-70
2022/10/24 03:38:23;;;;;;;8.65;1.25;;;16.70;99.90;;;;;;5097596;28;20100;-67
2022/10/24 03:40:49;;;;;;;6.05;1.63;;;16.70;99.90;;;;;;5096576;28;20295;-70
2022/10/24 03:43:15;;;;;;;3.97;1.48;;;16.80;99.90;;;;;;5097299;28;20039;-68
2022/10/24 03:45:41;;;;;;;5.47;1.15;;;16.70;99.90;;;;;;5096830;28;20054;-69
2022/10/24 03:48:07;;;;;;;6.63;1.00;;;16.70;99.90;;;;;;5079855;28;20032;-68
2022/10/24 03:50:33;;;;;;;7.63;1.20;;;16.60;99.90;;;;;;5096793;28;20043;-68
2022/10/24 03:52:59;;;;;;;8.77;1.48;;;16.60;99.90;;;;;;5096676;28;20027;-69
2022/10/24 03:55:25;;;;;;;3.05;0.90;;;16.60;99.90;;;;;;5096534;28;20024;-70
2022/10/24 03:57:51;;;;;;;5.45;1.10;;;16.70;99.90;;;;;;5079026;28;20056;-69
2022/10/24 04:00:18;;;;;;;7.25;1.08;;;16.70;99.90;;;;;;5097267;28;20054;-69
2022/10/24 04:02:45;;;;;;;4.38;0.93;;;16.80;99.90;;;;;;5096398;28;20040;-66
2022/10/24 04:05:11;;;;;;;4.22;1.10;;;16.80;99.90;;;;;;5079883;28;20422;-68
2022/10/24 04:07:36;;;;;;;5.35;1.10;;;16.70;99.90;;;;;;5079658;28;20028;-69
2022/10/24 04:10:03;;;;;;;5.57;1.10;;;16.70;99.90;;;;;;5096560;28;20043;-67
2022/10/24 04:12:29;;;;;;;6.07;1.30;;;16.70;99.90;;;;;;5096645;28;20050;-69
2022/10/24 04:14:55;;;;;;;7.75;1.35;;;16.70;99.90;;;;;;5097099;28;20387;-69
2022/10/24 04:17:20;;;;;;;5.10;1.10;;;16.70;99.90;;;;;;5096488;28;20029;-66
2022/10/24 04:19:46;;;;;;;7.40;1.30;;;16.80;99.90;;;;;;5079466;28;20062;-67
2022/10/24 04:22:12;;;;;;;4.45;1.02;;;16.70;99.90;;;;;;5079244;28;20028;-69
2022/10/24 04:24:38;;;;;;;6.90;1.15;;;16.80;99.90;;;;;;5062773;28;20028;-67
2022/10/24 04:27:05;;;;;;;5.13;1.10;;;16.80;99.90;;;;;;5079606;28;20119;-66
2022/10/24 04:29:31;;;;;;;8.13;1.45;;;16.80;99.90;;;;;;5096905;28;20035;-69
2022/10/24 04:31:57;;;;;;;6.25;1.08;;;16.80;99.90;;;;;;5096926;28;20119;-68
2022/10/24 04:34:23;;;;;;;7.15;1.20;;;16.80;99.90;;;;;;5096162;28;20467;-67
2022/10/24 04:36:49;;;;;;;4.85;1.50;;;16.90;99.90;;;;;;5096803;28;20040;-69
2022/10/24 04:39:15;;;;;;;7.18;1.30;;;16.90;99.90;;;;;;5095953;28;20272;-68
2022/10/24 04:41:41;;;;;;;6.68;1.10;;;16.80;99.90;;;;;;5096011;28;20111;-64
2022/10/24 04:44:06;;;;;;;5.63;1.40;;;16.90;99.90;;;;;;5095920;28;20123;-64
2022/10/24 04:46:32;;;;;;;9.15;1.80;;;16.90;99.90;;;;;;5096136;28;20028;-66
2022/10/24 04:48:58;;;;;;;8.30;1.73;;;16.90;99.90;;;;;;5096621;28;20059;-65
2022/10/24 04:51:24;;;;;;;7.07;1.70;;;16.90;99.90;;;;;;5096417;28;20328;-68
2022/10/24 04:53:51;;;;;;;5.70;1.10;;;17.00;99.90;;;;;;5079247;28;20110;-68
2022/10/24 04:56:17;;;;;;;7.72;1.48;;;16.90;99.90;;;;;;5096812;28;20110;-70
2022/10/24 04:58:43;;;;;;;6.20;1.27;;;16.90;99.90;;;;;;5096021;28;20032;-69
2022/10/24 05:01:09;;;;;;;7.43;1.65;;;16.90;99.90;;;;;;5062581;28;20024;-71
2022/10/24 05:03:35;;;;;;;4.53;1.13;;;16.90;99.90;;;;;;5079075;28;20024;-67
2022/10/24 05:06:01;;;;;;;4.95;1.10;;;16.90;99.90;;;;;;5096716;28;20081;-69
2022/10/24 05:08:27;;;;;;;7.20;1.58;;;16.90;99.90;;;;;;5098133;28;20036;-69
2022/10/24 05:10:53;;;;;;;6.82;1.27;;;16.90;99.90;;;;;;5082942;28;20028;-71
2022/10/24 05:13:19;;;;;;;9.38;1.83;;;16.90;99.90;;;;;;5099829;28;20118;-69
2022/10/24 05:15:45;;;;;;;4.78;1.23;;;16.80;99.90;;;;;;5099755;28;20020;-68
2022/10/24 05:18:11;;;;;;;8.07;1.58;;;16.90;99.90;;;;;;5099760;28;20039;-65
2022/10/24 05:20:37;;;;;;;13.75;1.98;;;16.80;99.90;;;;;;5100307;28;20212;-68
2022/10/24 05:23:03;;;;;;;8.63;1.55;;;16.90;99.90;;;;;;5082693;28;20028;-68
2022/10/24 05:25:29;;;;;;;9.05;1.73;;;16.80;99.90;;;;;;5082710;28;20040;-68
2022/10/24 05:27:54;;;;;;;5.05;1.23;;;16.70;99.90;;;;;;5099503;28;20504;-66
2022/10/24 05:30:23;;;;;;;5.43;1.33;;;16.60;99.90;;;;;;5100072;28;20040;-67
2022/10/24 05:32:49;;;;;;;7.90;1.70;;;16.60;99.90;;;;;;5100041;28;20423;-70
2022/10/24 05:35:14;;;;;;;6.20;1.08;;;16.50;99.90;;;;;;5099416;28;20424;-64
2022/10/24 05:37:41;;;;;;;9.40;1.63;;;16.50;99.90;;;;;;5099157;28;20395;-67
2022/10/24 05:40:08;;;;;;;9.90;1.50;;;16.40;99.90;;;;;;5099400;28;20419;-70
2022/10/24 05:42:35;;;;;;;8.80;1.48;;;16.40;99.90;;;;;;5099205;28;20028;-67
2022/10/24 05:45:00;;;;;;;9.18;1.52;;;16.40;99.90;;;;;;5099762;28;20129;-64
2022/10/24 05:47:26;;;;;;;7.10;1.40;;;16.30;99.90;;;;;;5099796;28;20108;-67
2022/10/24 05:49:52;;;;;;;8.40;1.70;;;16.20;99.90;;;;;;5099181;28;20033;-68
2022/10/24 05:52:18;;;;;;;9.55;1.92;;;16.10;99.90;;;;;;5099214;28;20020;-67
2022/10/24 05:54:43;;;;;;;11.02;1.65;;;16.20;99.90;;;;;;5099718;28;20058;-68
2022/10/24 05:57:09;;;;;;;10.73;1.77;;;16.20;99.90;;;;;;5065063;28;20056;-68
2022/10/24 05:59:35;;;;;;;8.38;1.75;;;16.20;99.90;;;;;;5099037;28;20291;-68
2022/10/24 06:02:01;;;;;;;13.50;1.80;;;16.10;99.90;;;;;;5099140;28;20115;-69
2022/10/24 06:04:26;;;;;;;7.05;1.38;;;16.10;99.90;;;;;;5098718;28;20281;-66
2022/10/24 06:06:52;;;;;;;9.57;1.45;;;16.00;99.90;;;;;;5099464;28;20024;-67
2022/10/24 06:09:18;;;;;;;7.93;1.73;;;16.00;99.90;;;;;;5098632;28;20040;-70
2022/10/24 06:11:44;;;;;;;8.45;1.60;;;16.00;99.90;;;;;;5098494;28;20353;-73
2022/10/24 06:14:10;;;;;;;11.65;1.60;;;15.90;99.90;;;;;;5064806;28;20138;-70
2022/10/24 06:16:36;;;;;;;7.88;2.05;;;15.80;99.90;;;;;;5098407;28;20402;-65
2022/10/24 06:19:02;;;;;;;9.68;1.67;;;15.80;99.90;;;;;;5098087;28;20040;-67
2022/10/24 06:21:28;;;;;;;9.27;1.45;;;15.70;99.90;;;;;;5080853;28;20189;-68
2022/10/24 06:23:54;;;;;;;6.53;1.67;;;15.60;99.90;;;;;;5098181;28;20035;-68
2022/10/24 06:26:19;;;;;;;8.55;1.48;;;15.60;99.90;;;;;;5099254;28;20032;-68
2022/10/24 06:28:45;;;;;;;12.18;2.05;;;15.50;99.90;;;;;;5098111;28;20086;-68
2022/10/24 06:31:12;;;;;;;9.98;2.00;;;15.40;99.90;;;;;;5099472;28;20291;-69
2022/10/24 06:33:38;;;;;;;10.23;1.55;;;15.30;99.90;;;;;;5098750;28;20097;-67
2022/10/24 06:36:08;;;;;;;14.35;2.42;;;15.20;99.90;;;;;;5098746;28;20028;-70
2022/10/24 06:38:35;;;;;;;8.80;1.33;;;15.20;99.90;;;;;;5097700;28;20036;-68
2022/10/24 06:41:06;;;;;;;13.18;2.17;;;15.20;99.90;;;;;;5097902;28;20048;-69
2022/10/24 06:43:32;;;;;;;9.82;2.00;;;15.20;99.90;;;;;;5098610;28;20110;-69
2022/10/24 06:45:58;;;;;;;9.70;1.67;;;15.20;99.90;;;;;;5097841;28;20042;-68
2022/10/24 06:48:24;;;;;;;11.07;1.48;;;15.20;99.90;;;;;;5097887;28;20028;-70
2022/10/24 06:50:50;;;;;;;7.68;1.52;;;15.30;99.90;;;;;;5097746;28;20027;-70
2022/10/24 06:53:15;;;;;;;12.93;1.40;;;15.30;99.90;;;;;;5098627;28;20035;-68
2022/10/24 06:55:41;;;;;;;12.82;1.65;;;15.30;99.90;;;;;;5097748;28;20031;-67
2022/10/24 06:58:07;;;;;;;11.90;2.05;;;15.30;99.90;;;;;;5097795;28;20044;-68
2022/10/24 07:00:34;;;;;;;9.02;1.45;;;15.30;99.90;;;;;;5098269;28;20040;-70
2022/10/24 07:03:00;;;;;;;9.13;1.35;;;15.40;99.90;;;;;;5080765;28;20398;-71
2022/10/24 07:05:26;;;;;;;8.35;1.67;;;15.40;99.90;;;;;;5097496;28;20032;-67
2022/10/24 07:07:51;;;;;;;8.27;1.30;;;15.50;99.90;;;;;;5098166;28;20047;-68
2022/10/24 07:10:18;;;;;;;6.70;1.15;;;15.50;99.90;;;;;;5097464;28;20036;-69
2022/10/24 07:12:44;;;;;;;8.35;1.38;;;15.40;99.90;;;;;;5080514;28;20082;-68
2022/10/24 07:15:09;;;;;;;6.07;1.20;;;15.40;99.90;;;;;;5098269;28;20032;-66
2022/10/24 07:17:43;;;;;;;7.40;1.10;;;15.30;99.90;;;;;;5080471;28;20093;-71
2022/10/24 07:20:11;;;;;;;7.13;1.23;;;15.30;99.90;;;;;;5097939;28;20093;-69
2022/10/24 07:22:37;;;;;;;7.38;1.50;;;15.30;99.90;;;;;;5097932;28;20032;-67
2022/10/24 07:25:04;;;;;;;9.15;1.80;;;15.30;99.90;;;;;;5097466;28;20345;-67
2022/10/24 07:27:30;;;;;;;6.03;1.10;;;15.40;99.90;;;;;;5080280;28;20031;-69
2022/10/24 07:29:56;;;;;;;8.55;1.52;;;15.40;99.90;;;;;;5097675;28;20111;-70
2022/10/24 07:32:22;;;;;;;14.27;1.90;;;15.40;99.90;;;;;;5063408;28;20123;-67
2022/10/24 07:34:48;;;;;;;8.38;1.35;;;15.50;99.90;;;;;;5097714;28;20422;-66
2022/10/24 07:37:15;;;;;;;9.02;1.48;;;15.50;99.90;;;;;;5097742;28;20032;-66
2022/10/24 07:39:42;;;;;;;7.45;1.15;;;15.60;99.90;;;;;;5080063;28;20097;-68
2022/10/24 07:42:07;;;;;;;11.48;1.85;;;15.60;99.90;;;;;;5097644;28;20036;-70
2022/10/24 07:44:33;;;;;;;17.65;1.92;;;15.70;99.90;;;;;;5097524;28;20344;-72
2022/10/24 07:46:59;;;;;;;7.70;1.75;;;15.70;99.90;;;;;;5113860;27;20040;-68
2022/10/24 07:49:25;;;;;;;9.02;1.55;;;15.70;99.90;;;;;;5096853;28;20047;-69
2022/10/24 07:51:51;;;;;;;8.48;1.75;;;15.60;99.90;;;;;;5079728;28;20419;-67
2022/10/24 07:54:17;;;;;;;9.10;1.45;;;15.70;99.90;;;;;;5097895;28;20407;-70
2022/10/24 07:56:42;;;;;;;5.55;1.20;;;15.70;99.90;;;;;;5097266;28;20062;-68
2022/10/24 07:59:08;;;;;;;6.60;1.55;;;15.60;99.90;;;;;;5097290;28;20047;-62
2022/10/24 08:01:34;;;;;;;7.10;1.35;;;15.70;99.90;;;;;;5079719;28;20459;-61
2022/10/24 08:04:01;;;;;;;8.85;1.45;;;15.70;99.90;;;;;;5079732;28;20047;-65
2022/10/24 08:06:31;;;;;;;5.88;1.10;;;15.80;99.90;;;;;;5096537;28;20036;-70
2022/10/24 08:08:57;;;;;;;11.15;1.58;;;15.70;99.90;;;;;;5097311;28;20299;-71
2022/10/24 08:11:25;;;;;;;8.55;1.38;;;15.70;99.90;;;;;;5096531;28;20032;-69
2022/10/24 08:13:52;;;;;;;5.57;1.10;;;15.80;99.90;;;;;;5079544;28;20046;-63
2022/10/24 08:16:20;;;;;;;7.45;1.00;;;15.90;99.90;;;;;;5096422;28;20043;-65
2022/10/24 08:18:47;;;;;;;6.38;1.13;;;16.10;99.90;;;;;;5096335;28;20032;-69
2022/10/24 08:21:14;;;;;;;8.25;1.33;;;16.30;99.90;;;;;;5062749;28;20367;-62
2022/10/24 08:23:43;;;;;;;9.45;1.48;;;16.40;99.90;;;;;;5096280;28;20348;-67
2022/10/24 08:26:13;;;;;;;9.18;1.65;;;16.60;99.90;;;;;;5097028;28;20062;-68
2022/10/24 08:28:39;;;;;;;9.45;1.27;;;16.60;99.90;;;;;;5096435;28;20063;-67
2022/10/24 08:31:09;;;;;;;9.35;1.23;;;16.60;99.90;;;;;;5079665;28;20107;-67
2022/10/24 08:33:35;;;;;;;7.90;1.60;;;16.50;99.90;;;;;;5096243;28;20020;-66
2022/10/24 08:36:05;;;;;;;7.50;1.30;;;16.50;99.90;;;;;;5079380;28;20031;-68
2022/10/24 08:38:31;;;;;;;8.98;1.30;;;16.40;99.90;;;;;;5096248;28;20402;-70
2022/10/24 08:40:57;;;;;;;10.30;1.50;;;16.30;99.90;;;;;;5096086;28;20025;-68
2022/10/24 08:43:24;;;;;;;8.98;1.42;;;16.20;99.90;;;;;;5097757;28;20028;-68
2022/10/24 08:46:12;;;;;;;8.75;1.63;;;16.20;99.90;;;;;;5100930;28;20028;-65
2022/10/24 08:48:48;;;;;;;8.43;1.60;;;16.30;99.90;;;;;;5100871;28;20103;-66
2022/10/24 08:51:35;;;;;;;9.70;1.50;;;16.40;99.90;;;;;;5100838;28;20035;-68
2022/10/24 08:54:03;;;;;;;7.95;1.33;;;16.50;99.90;;;;;;5100065;28;20024;-69
2022/10/24 08:56:32;;;;;;;7.85;1.50;;;16.70;99.90;;;;;;5099945;28;20144;-68
2022/10/24 08:59:00;;;;;;;13.50;1.95;;;16.90;99.90;;;;;;5100628;28;20051;-70
2022/10/24 09:01:58;;;;;;;10.80;1.75;;;17.00;99.90;;;;;;5100712;28;20388;-66
2022/10/24 09:04:27;;;;;;;9.80;1.15;;;17.00;99.90;;;;;;5098999;28;20097;-70
2022/10/24 09:06:54;;;;;;;11.02;1.60;;;16.90;99.90;;;;;;5100141;28;20383;-66
2022/10/24 09:09:28;;;;;;;10.13;1.60;;;17.00;99.90;;;;;;5099809;28;20119;-67
2022/10/24 09:12:10;;;;;;;9.18;1.63;;;16.80;99.90;;;;;;5099875;28;20039;-67
2022/10/24 09:14:39;;;;;;;11.65;1.70;;;16.80;99.90;;;;;;5099771;28;20032;-72
2022/10/24 09:17:41;;;;;;;10.73;1.80;;;17.00;99.90;;;;;;5100944;28;20052;-68
2022/10/24 09:20:35;;;;;;;8.00;1.55;;;16.90;99.90;;;;;;5018545;28;20033;-68
2022/10/24 09:23:04;;;;;;;11.05;1.73;;;16.90;99.90;;;;;;5087209;28;20307;-70
2022/10/24 09:25:35;;;;;;;8.02;1.77;;;16.80;99.90;;;;;;5082603;28;20024;-70
2022/10/24 09:28:04;;;;;;;7.85;1.85;;;16.60;99.90;;;;;;5083039;28;20035;-66
2022/10/24 09:30:31;;;;;;;12.43;2.33;;;16.60;99.90;;;;;;5099350;28;20123;-71
2022/10/24 09:33:11;;;;;;;10.98;2.42;;;16.60;99.90;;;;;;5099996;28;20043;-68
2022/10/24 09:35:38;;;;;;;8.18;1.98;;;16.50;99.90;;;;;;5100033;28;20032;-65
2022/10/24 09:38:41;;;;;;;11.85;2.13;;;16.50;99.90;;;;;;5099234;28;20348;-67
2022/10/24 09:41:19;;;;;;;10.30;1.90;;;16.50;99.90;;;;;;5099550;28;20035;-65
2022/10/24 09:43:57;;;;;;;10.40;2.13;;;16.30;99.90;;;;;;5099177;28;20360;-65
2022/10/24 09:46:44;;;;;;;11.55;2.03;;;16.10;99.90;;;;;;5099904;28;20020;-65
2022/10/24 09:49:16;;;;;;;16.38;2.00;;;15.90;99.90;;;;;;5100043;28;20391;-63
2022/10/24 09:51:49;;;;;;;11.35;1.70;;;15.70;99.90;;;;;;5082206;28;20032;-64
2022/10/24 09:54:17;;;;;;;8.32;1.80;;;15.60;99.90;;;;;;5098942;28;20032;-70
2022/10/24 09:56:45;;;;;;;9.43;2.25;;;15.50;99.90;;;;;;5081661;28;20048;-67
2022/10/24 09:59:29;;;;;;;9.52;2.35;;;15.50;99.90;;;;;;5099580;28;20028;-69
2022/10/24 10:02:28;;;;;;;14.40;2.58;;;15.40;99.90;;;;;;5099726;28;20024;-63
2022/10/24 10:05:19;;;;;;;12.40;1.88;;;15.40;99.90;;;;;;5061697;28;20090;-63
2022/10/24 10:07:47;;;;;;;15.48;2.92;;;15.50;99.90;;;;;;5099197;28;20045;-68
2022/10/24 10:10:30;;;;;;;13.43;2.45;;;15.60;99.90;;;;;;5099586;28;20039;-62
2022/10/24 10:12:58;;;;;;;;;;;15.90;99.90;;;;;;5100052;28;20261;-61
2022/10/24 10:15:38;;;;;;;12.98;2.33;;;16.20;99.90;;;;;;5099348;28;19904;-64
2022/10/24 10:18:30;;;;;;;6.93;1.75;;;16.30;99.90;;;;;;5098645;28;20294;-70
2022/10/24 10:21:07;;;;;;;7.47;2.25;;;16.40;99.90;;;;;;5099261;28;20032;-65
2022/10/24 10:23:50;;;;;;;12.45;2.00;;;16.50;99.90;;;;;;5098558;28;20032;-65
2022/10/24 10:26:29;;;;;;;10.68;2.00;;;16.60;99.90;;;;;;5098469;28;20047;-68
2022/10/24 10:28:57;;;;;;;13.57;2.33;;;16.80;99.90;;;;;;5099173;28;20028;-65
2022/10/24 10:31:45;;;;;;;9.48;1.90;;;16.90;99.90;;;;;;5099433;28;20028;-65
2022/10/24 10:34:51;;;;;;;9.23;1.90;;;17.10;99.90;;;;;;5098462;28;20032;-65
2022/10/24 10:37:32;;;;;;;7.40;1.88;;;17.00;99.90;;;;;;5018354;28;20128;-64
2022/10/24 10:40:07;;;;;;;8.23;2.10;;;17.00;99.90;;;;;;5093732;28;20047;-64
2022/10/24 10:43:00;;;;;;;9.63;1.73;;;17.00;99.90;;;;;;5098152;28;20016;-67
2022/10/24 10:45:39;;;;;;;10.38;1.77;;;17.20;99.90;;;;;;5098012;28;20040;-66
2022/10/24 10:48:21;;;;;;;6.53;1.35;;;17.30;99.90;;;;;;5099122;28;20035;-66
2022/10/24 10:51:09;;;;;;;11.15;1.58;;;17.80;99.90;;;;;;5097974;28;20483;-66
2022/10/24 10:53:42;;;;;;;9.55;1.42;;;18.20;99.90;;;;;;5098815;28;20122;-61
2022/10/24 10:56:26;;;;;;;5.95;1.17;;;18.30;99.90;;;;;;5098434;28;20048;-69
2022/10/24 10:59:03;;;;;;;5.97;1.52;;;17.90;99.90;;;;;;5097759;28;20406;-65
2022/10/24 11:01:41;;;;;;;10.90;1.60;;;17.80;99.90;;;;;;5097830;28;20031;-66
2022/10/24 11:04:21;;;;;;;6.97;1.30;;;18.10;99.90;;;;;;5098402;28;20028;-64
2022/10/24 11:07:07;;;;;;;7.05;1.30;;;19.00;99.90;;;;;;5098075;28;20024;-63
2022/10/24 11:09:40;;;;;;;7.25;1.50;;;19.50;99.90;;;;;;5097625;28;20295;-64
2022/10/24 11:12:21;;;;;;;10.43;1.45;;;19.50;99.90;;;;;;5098164;28;20024;-67
2022/10/24 11:14:57;;;;;;;6.78;1.52;;;19.00;99.90;;;;;;5097421;28;20040;-69
2022/10/24 11:17:40;;;;;;;10.07;1.70;;;19.10;99.90;;;;;;5098085;28;20035;-69
2022/10/24 11:20:22;;;;;;;6.68;1.58;;;18.70;99.90;;;;;;5098039;28;20035;-66
2022/10/24 11:23:29;;;;;;;11.30;1.73;;;18.90;99.90;;;;;;5097626;28;20115;-70
2022/10/24 11:26:04;;;;;;;4.68;1.33;;;18.60;99.90;;;;;;5097287;28;20028;-69
2022/10/24 11:28:56;;;;;;;9.50;1.90;;;18.60;99.90;;;;;;5097265;28;20069;-67
2022/10/24 11:31:33;;;;;;;7.20;1.70;;;18.80;99.90;;;;;;5098445;28;20028;-68
2022/10/24 11:34:10;;;;;;;6.03;1.27;;;18.90;99.90;;;;;;5096978;28;20028;-66
2022/10/24 11:36:45;;;;;;;6.57;1.35;;;19.20;99.90;;;;;;5097136;28;20392;-69
2022/10/24 11:39:35;;;;;;;8.07;1.65;;;19.00;99.90;;;;;;5096855;28;20410;-68
2022/10/24 11:42:14;;;;;;;6.38;1.20;;;19.20;99.90;;;;;;5096972;28;20028;-70
2022/10/24 11:44:52;;;;;;;8.40;1.35;;;18.90;99.90;;;;;;5097571;28;20024;-68
2022/10/24 11:47:24;;;;;;;5.55;1.10;;;19.00;99.90;;;;;;5096805;28;20070;-71
2022/10/24 11:50:31;;;;;;;6.40;1.38;;;19.40;99.90;;;;;;5096754;28;20095;-67
2022/10/24 11:53:18;;;;;;;12.75;1.60;;;19.40;99.90;;;;;;5016169;28;20034;-67
2022/10/24 11:55:52;;;;;;;5.97;1.23;;;19.50;99.90;;;;;;5015926;28;20048;-67
2022/10/24 11:58:22;;;;;;;8.27;1.27;;;19.50;99.90;;;;;;5070274;28;20044;-66
2022/10/24 12:01:18;;;;;;;9.48;1.33;;;19.30;99.90;;;;;;5096635;28;20032;-67
2022/10/24 12:04:20;;;;;;;4.60;1.27;;;18.90;99.90;;;;;;5097458;28;20043;-69
2022/10/24 12:06:46;;;;;;;5.72;1.20;;;18.80;99.90;;;;;;5092610;28;20036;-68
2022/10/24 12:09:38;;;;;;;12.00;1.25;;;18.70;99.90;;;;;;5097212;28;20027;-68
2022/10/24 12:12:13;;;;;;;5.15;0.93;;;18.50;99.90;;;;;;5066002;28;20036;-64
2022/10/24 12:14:57;;;;;;;9.40;1.67;;;18.50;99.90;;;;;;5096512;28;20049;-65
2022/10/24 12:18:00;;;;;;;6.65;1.10;;;18.40;99.90;;;;;;5095960;28;20155;-68
2022/10/24 12:20:27;;;;;;;6.05;1.30;;;18.40;99.90;;;;;;5097116;28;20111;-66
2022/10/24 12:22:54;;;;;;;6.28;1.30;;;18.40;99.90;;;;;;5096465;28;20028;-68
2022/10/24 12:25:31;;;;;;;6.05;1.40;;;18.20;99.90;;;;;;5096423;28;20028;-69
2022/10/24 12:28:11;;;;;;;6.45;1.17;;;18.30;99.90;;;;;;5096339;28;20323;-67
2022/10/24 12:30:37;;;;;;;5.72;1.00;;;18.20;99.90;;;;;;5097008;28;20040;-67
2022/10/24 12:33:25;;;;;;;6.43;1.35;;;18.10;99.90;;;;;;5096295;28;20232;-68
2022/10/24 12:35:56;;;;;;;4.28;1.00;;;18.20;99.90;;;;;;5096155;28;20036;-67
2022/10/24 12:38:27;;;;;;;5.68;1.20;;;18.10;99.90;;;;;;5079958;28;20028;-66
2022/10/24 12:41:04;;;;;;;11.32;1.20;;;18.20;99.90;;;;;;5096068;28;20043;-66
2022/10/24 12:43:38;;;;;;;6.15;1.35;;;18.20;99.90;;;;;;5096177;28;20276;-64
2022/10/24 12:46:13;;;;;;;6.82;1.35;;;18.20;99.90;;;;;;5096777;28;20028;-66
2022/10/24 12:48:41;;;;;;;6.35;1.02;;;18.40;99.90;;;;;;5096739;28;20028;-63
2022/10/24 12:51:33;;;;;;;5.95;1.00;;;18.50;99.90;;;;;;5096921;28;20135;-67
2022/10/24 12:54:16;;;;;;;8.65;1.35;;;18.90;99.90;;;;;;5096832;28;20036;-67
2022/10/24 12:56:51;;;;;;;5.25;1.20;;;19.20;99.90;;;;;;5095798;28;20155;-65
2022/10/24 12:59:20;;;;;;;5.35;1.20;;;19.40;99.90;;;;;;5079005;28;20433;-65
2022/10/24 13:01:48;;;;;;;5.72;1.20;;;19.50;99.90;;;;;;5096022;28;20056;-66
2022/10/24 13:04:37;;;;;;;8.35;1.13;;;19.30;99.90;;;;;;5095815;28;20036;-66
2022/10/24 13:07:09;;;;;;;4.32;0.82;;;19.00;99.90;;;;;;5079023;28;20028;-68
2022/10/24 13:09:41;;;;;;;6.93;0.93;;;18.90;99.90;;;;;;5096666;28;20035;-68